createdAt,value
2022-10-14T00:04:50.380Z,99203.50
2022-10-14T00:09:53.352Z,99200.50
2022-10-14T00:14:57.940Z,99200.75
2022-10-14T00:20:01.130Z,99193.63
2022-10-14T00:25:04.348Z,99196.84
2022-10-14T00:30:11.009Z,99192.19
2022-10-14T00:35:14.030Z,99198.13
2022-10-14T00:40:17.235Z,99202.97
2022-10-14T00:45:26.727Z,99203.50
2022-10-14T00:50:30.851Z,99208.34
2022-10-14T00:55:34.866Z,99197.44
2022-10-14T01:00:41.948Z,99200.63
2022-10-14T01:05:55.348Z,99194.16
2022-10-14T01:11:06.757Z,99199.28
2022-10-14T01:16:22.073Z,99195.44
2022-10-14T01:21:30.314Z,99197.38
2022-10-14T01:27:00.841Z,99197.75
2022-10-14T01:32:11.520Z,99199.41
2022-10-14T01:37:21.408Z,99190.09
2022-10-14T01:42:28.807Z,99193.78
2022-10-14T01:47:36.058Z,99186.13
2022-10-14T01:52:45.070Z,99184.84
2022-10-14T01:57:50.881Z,99179.22
2022-10-14T02:02:55.272Z,99164.88
2022-10-14T02:08:04.240Z,99164.00
2022-10-14T02:13:20.500Z,99164.81
2022-10-14T02:18:36.502Z,99165.38
2022-10-14T02:23:46.865Z,99158.09
2022-10-14T02:28:51.307Z,99157.09
2022-10-14T02:33:59.838Z,99151.03
2022-10-14T02:39:04.270Z,99146.78
2022-10-14T02:44:07.931Z,99144.59
2022-10-14T02:49:12.542Z,99140.41
2022-10-14T02:54:15.758Z,99149.56
2022-10-14T02:59:18.723Z,99145.06
2022-10-14T03:04:23.109Z,99142.31
2022-10-14T03:09:28.572Z,99138.06
2022-10-14T03:14:33.811Z,99143.84
2022-10-14T03:19:39.895Z,99132.59
2022-10-14T03:24:44.182Z,99126.63
2022-10-14T03:30:04.400Z,99133.38
2022-10-14T03:35:10.829Z,99136.69
2022-10-14T03:40:15.196Z,99131.53
2022-10-14T03:45:18.336Z,99131.44
2022-10-14T03:50:24.877Z,99125.06
2022-10-14T03:55:31.668Z,99121.84
2022-10-14T04:00:35.662Z,99122.78
2022-10-14T04:06:06.563Z,99117.22
2022-10-14T04:11:09.825Z,99113.53
2022-10-14T04:16:15.693Z,99108.00
2022-10-14T04:21:40.335Z,99104.94
2022-10-14T04:26:45.330Z,99106.56
2022-10-14T04:31:55.080Z,99101.78
2022-10-14T04:37:00.550Z,99108.25
2022-10-14T04:42:28.744Z,99106.50
2022-10-14T04:47:36.543Z,99094.38
2022-10-14T04:52:40.945Z,99102.28
2022-10-14T04:57:48.316Z,99100.66
2022-10-14T05:02:51.338Z,99095.41
2022-10-14T05:07:57.015Z,99087.00
2022-10-14T05:13:06.362Z,99093.66
2022-10-14T05:18:13.851Z,99091.97
2022-10-14T05:23:30.099Z,99094.72
2022-10-14T05:28:35.904Z,99092.97
2022-10-14T05:33:39.959Z,99084.75
2022-10-14T05:38:44.678Z,99088.47
2022-10-14T05:43:47.761Z,99082.69
2022-10-14T05:48:51.950Z,99083.44
2022-10-14T05:53:56.360Z,99089.41
2022-10-14T05:59:00.344Z,99087.28
2022-10-14T06:04:04.270Z,99094.69
2022-10-14T06:09:11.317Z,99098.34
2022-10-14T06:14:15.008Z,99096.88
2022-10-14T06:19:18.109Z,99100.78
2022-10-14T06:24:22.365Z,99094.19
2022-10-14T06:29:26.430Z,99092.00
2022-10-14T06:34:29.342Z,99089.72
2022-10-14T06:39:33.653Z,99089.44
2022-10-14T06:44:36.715Z,99095.69
2022-10-14T06:49:40.033Z,99100.94
2022-10-14T06:54:48.143Z,99107.75
2022-10-14T06:59:51.496Z,99099.13
2022-10-14T07:04:54.483Z,99102.09
2022-10-14T07:09:59.200Z,99106.03
2022-10-14T07:15:02.139Z,99107.38
2022-10-14T07:20:05.602Z,99111.66
2022-10-14T07:25:11.221Z,99109.41
2022-10-14T07:30:17.478Z,99118.16
2022-10-14T07:35:20.791Z,99118.00
2022-10-14T07:40:25.077Z,99107.13
2022-10-14T07:45:28.051Z,99111.13
2022-10-14T07:50:31.054Z,99113.75
2022-10-14T07:55:35.495Z,99114.78
2022-10-14T08:00:38.751Z,99116.16
2022-10-14T08:05:42.288Z,99117.50
2022-10-14T08:10:46.704Z,99121.34
2022-10-14T08:15:49.674Z,99114.81
2022-10-14T08:20:53.113Z,99117.50
2022-10-14T08:25:57.384Z,99125.13
2022-10-14T08:31:00.314Z,99116.31
2022-10-14T08:36:03.214Z,99115.28
2022-10-14T08:41:24.318Z,99119.66
2022-10-14T08:46:32.521Z,99115.91
2022-10-14T08:51:36.072Z,99107.50
2022-10-14T08:56:40.539Z,99107.63
2022-10-14T09:01:52.139Z,99106.22
2022-10-14T09:06:56.725Z,99106.34
2022-10-14T09:12:03.904Z,99104.97
2022-10-14T09:17:08.547Z,99103.81
2022-10-14T09:22:15.974Z,99096.66
2022-10-14T09:27:22.785Z,99094.63
2022-10-14T09:32:30.709Z,99092.06
2022-10-14T09:37:35.646Z,99099.50
2022-10-14T09:42:49.743Z,99094.03
2022-10-14T09:47:56.348Z,99088.44
2022-10-14T09:53:03.665Z,99100.00
2022-10-14T09:58:15.192Z,99092.16
2022-10-14T10:03:29.446Z,99078.47
2022-10-14T10:08:32.863Z,99077.38
2022-10-14T10:13:45.055Z,99061.66
2022-10-14T10:18:48.518Z,99055.41
2022-10-14T10:23:54.920Z,99054.81
2022-10-14T10:29:00.715Z,99044.59
2022-10-14T10:34:13.850Z,99049.00
2022-10-14T10:39:28.787Z,99052.09
2022-10-14T10:44:55.355Z,99053.56
2022-10-14T10:50:27.271Z,99040.84
2022-10-14T10:55:39.694Z,99042.50
2022-10-14T11:00:52.562Z,99037.81
2022-10-14T11:06:04.004Z,99042.06
2022-10-14T11:11:36.397Z,99033.56
2022-10-14T11:16:50.677Z,99030.78
2022-10-14T11:22:00.306Z,99026.25
2022-10-14T11:27:12.236Z,99026.19
2022-10-14T11:32:23.304Z,99024.34
2022-10-14T11:37:31.177Z,99021.72
2022-10-14T11:42:49.168Z,99014.41
2022-10-14T11:47:56.330Z,99005.31
2022-10-14T11:53:04.180Z,98997.69
2022-10-14T11:58:14.575Z,98984.25
2022-10-14T12:03:27.105Z,98984.75
2022-10-14T12:08:35.950Z,98979.16
2022-10-14T12:13:44.493Z,98979.88
2022-10-14T12:18:53.991Z,98977.38
2022-10-14T12:24:04.874Z,98968.28
2022-10-14T12:29:08.475Z,98974.09
2022-10-14T12:34:38.069Z,98963.91
2022-10-14T12:39:44.356Z,98964.25
2022-10-14T12:44:52.009Z,98958.09
2022-10-14T12:50:02.576Z,98948.31
2022-10-14T12:55:16.512Z,98950.16
2022-10-14T13:00:31.709Z,98943.22
2022-10-14T13:05:38.958Z,98943.75
2022-10-14T13:10:48.370Z,98948.00
2022-10-14T13:15:52.679Z,98935.78
2022-10-14T13:20:56.947Z,98936.44
2022-10-14T13:26:16.006Z,98932.16
2022-10-14T13:31:26.676Z,98922.31
2022-10-14T13:36:39.612Z,98920.09
2022-10-14T13:41:45.374Z,98919.44
2022-10-14T13:46:50.215Z,98911.56
2022-10-14T13:51:58.816Z,98901.69
2022-10-14T13:57:35.041Z,98893.78
2022-10-14T14:02:27.957Z,98890.16
2022-10-14T14:13:05.313Z,98897.06
2022-10-14T14:18:33.931Z,98884.75
2022-10-14T14:23:56.419Z,98878.44
2022-10-14T14:28:59.547Z,98878.75
2022-10-14T14:34:02.691Z,98881.09
2022-10-14T14:39:06.969Z,98871.69
2022-10-14T14:44:25.322Z,98867.50
2022-10-14T14:49:31.458Z,98855.38
2022-10-14T14:54:45.873Z,98845.28
2022-10-14T14:59:57.980Z,98839.47
2022-10-14T15:05:03.601Z,98851.13
2022-10-14T15:10:09.761Z,98842.66
2022-10-14T15:15:27.319Z,98845.56
2022-10-14T15:20:32.020Z,98841.31
2022-10-14T15:25:36.271Z,98834.13
2022-10-14T15:30:54.121Z,98838.91
2022-10-14T15:35:59.386Z,98839.69
2022-10-14T15:41:05.359Z,98839.41
2022-10-14T15:46:31.431Z,98837.53
2022-10-14T15:51:34.398Z,98841.19
2022-10-14T15:56:39.256Z,98843.53
2022-10-14T16:01:45.122Z,98840.22
2022-10-14T16:06:48.319Z,98845.91
2022-10-14T16:11:57.416Z,98840.19
2022-10-14T16:17:05.959Z,98834.19
2022-10-14T16:22:10.435Z,98833.06
2022-10-14T16:27:15.661Z,98818.56
2022-10-14T16:32:18.964Z,98816.97
2022-10-14T16:37:22.415Z,98807.25
2022-10-14T16:42:26.936Z,98812.22
2022-10-14T16:47:29.947Z,98810.59
2022-10-14T16:52:55.207Z,98809.66
2022-10-14T16:57:59.605Z,98809.84
2022-10-14T17:03:03.187Z,98813.88
2022-10-14T17:08:07.668Z,98809.94
2022-10-14T17:13:12.297Z,98808.28
2022-10-14T17:18:17.953Z,98819.25
2022-10-14T17:23:21.151Z,98816.72
2022-10-14T17:28:25.706Z,98827.41
2022-10-14T17:33:28.748Z,98815.28
2022-10-14T17:38:32.305Z,98816.59
2022-10-14T17:43:36.858Z,98810.00
2022-10-14T17:48:42.483Z,98817.50
2022-10-14T17:53:46.127Z,98824.56
2022-10-14T17:58:53.206Z,98817.75
2022-10-14T18:03:58.390Z,98808.41
2022-10-14T18:09:03.410Z,98806.50
2022-10-14T18:14:09.377Z,98813.88
2022-10-14T18:19:16.990Z,98808.84
2022-10-14T18:24:20.289Z,98806.03
2022-10-14T18:29:24.962Z,98801.97
2022-10-14T18:34:27.890Z,98792.94
2022-10-14T18:39:30.832Z,98785.06
2022-10-14T18:44:35.153Z,98775.00
2022-10-14T18:49:40.668Z,98770.78
2022-10-14T18:54:44.396Z,98778.75
2022-10-14T18:59:51.005Z,98780.44
2022-10-14T19:04:56.057Z,98775.22
2022-10-14T19:09:59.206Z,98781.63
2022-10-14T19:15:03.720Z,98774.13
2022-10-14T19:20:08.747Z,98765.19
2022-10-14T19:25:11.865Z,98764.94
2022-10-14T19:30:16.203Z,98758.16
2022-10-14T19:35:21.732Z,98745.13
2022-10-14T19:40:24.942Z,98727.00
2022-10-14T19:45:29.259Z,98724.88
2022-10-14T19:50:32.648Z,98719.44
2022-10-14T19:55:35.769Z,98706.13
2022-10-14T20:00:40.179Z,98696.78
2022-10-14T20:05:43.075Z,98690.78
2022-10-14T20:10:46.168Z,98693.31
2022-10-14T20:15:55.373Z,98678.16
2022-10-14T20:20:58.385Z,98668.53
2022-10-14T20:26:01.679Z,98664.19
2022-10-14T20:31:07.470Z,98663.16
2022-10-14T20:36:13.330Z,98651.19
2022-10-14T20:41:18.152Z,98656.94
2022-10-14T20:46:24.139Z,98649.13
2022-10-14T20:51:27.342Z,98663.16
2022-10-14T20:56:32.011Z,98661.34
2022-10-14T21:01:37.630Z,98654.72
2022-10-14T21:06:41.202Z,98650.63
2022-10-14T21:11:44.674Z,98644.81
2022-10-14T21:16:48.954Z,98637.47
2022-10-14T21:21:51.849Z,98637.78
2022-10-14T21:26:55.133Z,98627.53
2022-10-14T21:31:59.421Z,98610.69
2022-10-14T21:37:02.307Z,98600.88
2022-10-14T21:42:05.418Z,98604.91
2022-10-14T21:47:09.658Z,98584.81
2022-10-14T21:52:12.532Z,98576.25
2022-10-14T21:57:17.234Z,98572.53
2022-10-14T22:02:22.646Z,98573.50
2022-10-14T22:07:25.905Z,98578.38
2022-10-14T22:12:30.374Z,98566.19
2022-10-14T22:17:34.702Z,98551.16
2022-10-14T22:22:37.615Z,98541.03
2022-10-14T22:27:40.548Z,98548.16
2022-10-14T22:32:44.816Z,98539.84
2022-10-14T22:37:47.723Z,98529.41
2022-10-14T22:42:51.545Z,98524.53
2022-10-14T22:47:56.013Z,98527.78
2022-10-14T22:52:58.935Z,98526.03
2022-10-14T22:58:01.811Z,98527.25
2022-10-14T23:03:06.264Z,98522.97
2022-10-14T23:08:11.407Z,98523.72
2022-10-14T23:13:14.333Z,98525.06
2022-10-14T23:18:18.579Z,98517.25
2022-10-14T23:23:21.481Z,98510.38
2022-10-14T23:28:26.359Z,98518.28
2022-10-14T23:33:33.068Z,98504.34
2022-10-14T23:38:36.864Z,98504.47
2022-10-14T23:43:40.003Z,98486.34
2022-10-14T23:48:51.415Z,98485.75
2022-10-14T23:54:04.033Z,98488.22
2022-10-14T23:59:07.086Z,98481.22
